createdAt,value
2018-12-15T00:00:12.312Z,57.09
2018-12-15T00:02:46.384Z,58.69
2018-12-15T00:05:20.535Z,58.22
2018-12-15T00:07:54.442Z,58.39
2018-12-15T00:10:28.209Z,57.24
2018-12-15T00:13:02.225Z,55.74
2018-12-15T00:15:36.267Z,56.02
2018-12-15T00:18:10.173Z,55.67
2018-12-15T00:20:43.982Z,55.90
2018-12-15T00:23:17.886Z,55.86
2018-12-15T00:25:51.689Z,55.55
2018-12-15T00:28:25.368Z,55.14
2018-12-15T00:30:59.201Z,54.99
2018-12-15T00:33:33.263Z,55.35
2018-12-15T00:36:07.220Z,55.01
2018-12-15T00:38:41.327Z,55.69
2018-12-15T00:41:15.240Z,55.96
2018-12-15T00:43:49.349Z,56.34
2018-12-15T00:46:23.093Z,55.71
2018-12-15T00:48:56.917Z,56.54
2018-12-15T00:51:30.966Z,57.25
2018-12-15T00:54:04.883Z,56.16
2018-12-15T00:56:39.090Z,56.18
2018-12-15T00:59:13.098Z,55.83
2018-12-15T01:01:47.114Z,56.85
2018-12-15T01:04:21.326Z,56.60
2018-12-15T01:06:55.334Z,55.61
2018-12-15T01:09:29.444Z,56.67
2018-12-15T01:12:03.152Z,56.02
2018-12-15T01:14:37.159Z,55.33
2018-12-15T01:17:11.267Z,55.84
2018-12-15T01:19:45.278Z,55.73
2018-12-15T01:22:18.983Z,55.95
2018-12-15T01:24:52.685Z,57.00
2018-12-15T01:27:26.694Z,56.51
2018-12-15T01:30:00.599Z,56.98
2018-12-15T01:32:34.387Z,58.84
2018-12-15T01:35:08.332Z,58.17
2018-12-15T01:37:42.321Z,57.81
2018-12-15T01:40:16.337Z,58.03
2018-12-15T01:42:50.442Z,57.11
2018-12-15T01:45:24.350Z,56.81
2018-12-15T01:47:58.159Z,58.24
2018-12-15T01:50:32.164Z,58.06
2018-12-15T01:53:06.071Z,56.26
2018-12-15T01:55:39.863Z,55.95
2018-12-15T01:58:13.681Z,58.00
2018-12-15T02:00:47.488Z,57.07
2018-12-15T02:03:21.545Z,56.27
2018-12-15T02:05:55.709Z,56.31
2018-12-15T02:08:29.923Z,55.57
2018-12-15T02:11:03.937Z,55.83
2018-12-15T02:13:37.634Z,55.67
2018-12-15T02:16:11.747Z,54.09
2018-12-15T02:18:45.628Z,55.20
2018-12-15T02:21:19.664Z,54.57
2018-12-15T02:23:53.471Z,54.99
2018-12-15T02:26:27.276Z,54.71
2018-12-15T02:29:01.385Z,55.07
2018-12-15T02:31:35.136Z,55.34
2018-12-15T02:34:09.201Z,55.74
2018-12-15T02:36:43.112Z,56.79
2018-12-15T02:39:17.120Z,56.98
2018-12-15T02:41:50.812Z,55.82
2018-12-15T02:44:24.623Z,55.53
2018-12-15T02:46:58.430Z,55.11
2018-12-15T02:49:32.337Z,54.46
2018-12-15T02:52:06.325Z,54.39
2018-12-15T02:54:40.355Z,54.60
2018-12-15T02:57:14.366Z,55.35
2018-12-15T02:59:48.373Z,55.16
2018-12-15T03:02:22.383Z,54.94
2018-12-15T03:04:56.395Z,54.63
2018-12-15T03:07:30.197Z,54.99
2018-12-15T03:10:05.851Z,55.26
2018-12-15T03:12:39.764Z,54.68
2018-12-15T03:15:13.561Z,54.29
2018-12-15T03:17:49.028Z,53.92
2018-12-15T03:20:23.082Z,53.92
2018-12-15T03:22:57.123Z,53.43
2018-12-15T03:25:31.000Z,53.96
2018-12-15T03:28:05.146Z,54.29
2018-12-15T03:30:39.152Z,54.16
2018-12-15T03:33:12.969Z,54.39
2018-12-15T03:35:47.681Z,53.02
2018-12-15T03:38:21.795Z,53.83
2018-12-15T03:40:55.679Z,53.63
2018-12-15T03:43:29.814Z,53.97
2018-12-15T03:46:03.824Z,54.44
2018-12-15T03:48:37.732Z,54.26
2018-12-15T03:51:11.525Z,54.03
2018-12-15T03:53:45.491Z,54.33
2018-12-15T03:56:19.553Z,53.50
2018-12-15T03:58:53.261Z,53.89
2018-12-15T04:01:27.369Z,54.37
2018-12-15T04:04:01.068Z,53.72
2018-12-15T04:06:35.192Z,53.07
2018-12-15T04:09:08.835Z,53.83
2018-12-15T04:11:42.600Z,53.78
2018-12-15T04:14:16.597Z,52.86
2018-12-15T04:16:50.404Z,52.79
2018-12-15T04:19:24.514Z,53.69
2018-12-15T04:22:20.752Z,54.08
2018-12-15T04:24:54.549Z,53.87
2018-12-15T04:27:28.415Z,52.79
2018-12-15T04:30:02.465Z,53.00
2018-12-15T04:32:36.372Z,54.12
2018-12-15T04:35:10.280Z,54.27
2018-12-15T04:37:44.086Z,54.65
2018-12-15T04:40:18.151Z,54.84
2018-12-15T04:42:52.210Z,55.54
2018-12-15T04:45:26.062Z,54.62
2018-12-15T04:48:00.102Z,53.95
2018-12-15T04:50:34.220Z,54.06
2018-12-15T04:53:08.216Z,55.85
2018-12-15T04:55:43.072Z,55.91
2018-12-15T04:58:16.789Z,54.93
2018-12-15T05:00:50.786Z,55.10
2018-12-15T05:03:24.656Z,55.31
2018-12-15T05:05:58.707Z,56.91
2018-12-15T05:08:32.506Z,56.72
2018-12-15T05:11:06.518Z,55.86
2018-12-15T05:13:40.321Z,55.23
2018-12-15T05:16:14.023Z,54.94
2018-12-15T05:18:47.849Z,55.23
2018-12-15T05:21:21.837Z,55.57
2018-12-15T05:23:55.595Z,56.30
2018-12-15T05:26:29.652Z,56.29
2018-12-15T05:29:03.456Z,55.35
2018-12-15T05:31:37.470Z,55.40
2018-12-15T05:34:11.475Z,54.44
2018-12-15T05:36:45.332Z,53.39
2018-12-15T05:39:19.255Z,54.58
2018-12-15T05:41:53.266Z,53.23
2018-12-15T05:44:27.210Z,53.38
2018-12-15T05:47:02.138Z,55.48
2018-12-15T05:49:36.057Z,55.72
2018-12-15T05:52:09.850Z,55.30
2018-12-15T05:54:43.655Z,55.90
2018-12-15T05:57:17.357Z,55.52
2018-12-15T05:59:51.367Z,55.03
2018-12-15T06:02:25.684Z,54.28
2018-12-15T06:04:59.796Z,54.63
2018-12-15T06:07:33.704Z,54.73
2018-12-15T06:10:07.921Z,55.01
2018-12-15T06:12:41.825Z,55.40
2018-12-15T06:15:15.630Z,56.83
2018-12-15T06:17:49.434Z,55.85
2018-12-15T06:20:23.343Z,55.24
2018-12-15T06:22:57.452Z,55.83
2018-12-15T06:25:31.465Z,56.46
2018-12-15T06:28:05.370Z,56.98
2018-12-15T06:30:39.277Z,55.89
2018-12-15T06:33:13.166Z,57.19
2018-12-15T06:35:47.402Z,55.53
2018-12-15T06:38:21.305Z,56.07
2018-12-15T06:40:55.215Z,55.17
2018-12-15T06:43:29.125Z,55.23
2018-12-15T06:46:03.327Z,54.57
2018-12-15T06:48:38.223Z,53.08
2018-12-15T06:51:12.301Z,54.55
2018-12-15T06:53:46.063Z,53.77
2018-12-15T06:56:22.018Z,53.31
2018-12-15T06:58:56.065Z,53.04
2018-12-15T07:01:30.054Z,53.39
2018-12-15T07:04:03.966Z,53.19
2018-12-15T07:06:37.970Z,53.06
2018-12-15T07:09:12.042Z,53.71
2018-12-15T07:11:45.784Z,53.32
2018-12-15T07:14:19.794Z,53.30
2018-12-15T07:16:53.698Z,55.37
2018-12-15T07:19:27.821Z,54.81
2018-12-15T07:22:01.829Z,53.47
2018-12-15T07:24:35.730Z,53.34
2018-12-15T07:27:09.637Z,54.43
2018-12-15T07:29:43.544Z,54.45
2018-12-15T07:32:17.553Z,54.43
2018-12-15T07:34:51.563Z,55.34
2018-12-15T07:37:25.420Z,55.37
2018-12-15T07:39:59.586Z,55.15
2018-12-15T07:42:33.388Z,54.95
2018-12-15T07:45:07.502Z,54.56
2018-12-15T07:47:41.364Z,53.80
2018-12-15T07:50:15.619Z,53.50
2018-12-15T07:52:49.372Z,54.11
2018-12-15T07:55:23.435Z,54.18
2018-12-15T07:57:57.445Z,53.75
2018-12-15T08:00:31.352Z,53.63
2018-12-15T08:03:05.264Z,54.84
2018-12-15T08:05:39.268Z,53.98
2018-12-15T08:08:13.175Z,54.68
2018-12-15T08:10:52.817Z,53.95
2018-12-15T08:13:28.677Z,53.06
2018-12-15T08:16:02.579Z,53.33
2018-12-15T08:18:36.280Z,54.24
2018-12-15T08:21:10.190Z,54.33
2018-12-15T08:23:44.156Z,54.51
2018-12-15T08:26:18.207Z,54.41
2018-12-15T08:28:52.169Z,52.96
2018-12-15T08:31:26.310Z,53.83
2018-12-15T08:34:00.199Z,54.01
2018-12-15T08:36:34.244Z,53.33
2018-12-15T08:39:08.050Z,53.35
2018-12-15T08:41:41.954Z,53.50
2018-12-15T08:44:15.760Z,54.18
2018-12-15T08:46:49.424Z,54.52
2018-12-15T08:49:23.475Z,54.10
2018-12-15T08:51:57.380Z,54.53
2018-12-15T08:54:31.389Z,53.64
2018-12-15T08:57:05.398Z,55.45
2018-12-15T08:59:39.104Z,55.77
2018-12-15T09:02:12.905Z,55.26
2018-12-15T09:04:46.882Z,55.14
2018-12-15T09:07:21.029Z,54.42
2018-12-15T09:09:54.729Z,55.13
2018-12-15T09:12:28.846Z,55.62
2018-12-15T09:15:02.954Z,55.06
2018-12-15T09:17:37.064Z,54.51
2018-12-15T09:20:10.768Z,52.88
2018-12-15T09:22:44.953Z,53.75
2018-12-15T09:25:18.889Z,53.60
2018-12-15T09:27:52.777Z,53.87
2018-12-15T09:30:26.703Z,53.59
2018-12-15T09:33:00.714Z,54.50
2018-12-15T09:35:34.517Z,53.63
2018-12-15T09:38:08.424Z,53.35
2018-12-15T09:40:42.333Z,53.36
2018-12-15T09:43:16.340Z,53.38
2018-12-15T09:45:50.317Z,52.95
2018-12-15T09:48:24.360Z,52.64
2018-12-15T09:50:58.169Z,52.24
2018-12-15T09:53:32.174Z,53.33
2018-12-15T09:56:06.153Z,52.84
2018-12-15T09:58:40.193Z,52.72
2018-12-15T10:01:14.407Z,52.21
2018-12-15T10:03:48.417Z,52.46
2018-12-15T10:06:22.372Z,52.63
2018-12-15T10:08:56.437Z,52.51
2018-12-15T10:11:30.142Z,53.00
2018-12-15T10:14:04.253Z,52.31
2018-12-15T10:16:38.263Z,51.96
2018-12-15T10:19:12.171Z,51.76
2018-12-15T10:21:46.026Z,52.10
2018-12-15T10:24:20.085Z,51.83
2018-12-15T10:26:55.213Z,53.03
2018-12-15T10:29:34.733Z,51.78
2018-12-15T10:32:14.299Z,51.83
2018-12-15T10:34:48.414Z,52.60
2018-12-15T10:37:22.279Z,52.39
2018-12-15T10:39:56.428Z,53.05
2018-12-15T10:42:30.646Z,52.45
2018-12-15T10:45:05.274Z,53.49
2018-12-15T10:47:39.224Z,52.84
2018-12-15T10:50:13.184Z,52.31
2018-12-15T10:52:47.092Z,52.74
2018-12-15T10:55:20.999Z,52.65
2018-12-15T10:57:54.803Z,52.56
2018-12-15T11:00:34.240Z,53.25
2018-12-15T11:03:08.147Z,54.04
2018-12-15T11:05:42.054Z,53.22
2018-12-15T11:08:15.938Z,52.79
2018-12-15T11:10:50.074Z,52.25
2018-12-15T11:13:23.822Z,52.07
2018-12-15T11:15:57.889Z,53.18
2018-12-15T11:18:31.757Z,53.33
2018-12-15T11:21:05.907Z,52.78
2018-12-15T11:23:40.122Z,52.80
2018-12-15T11:26:14.234Z,53.06
2018-12-15T11:28:48.141Z,53.55
2018-12-15T11:31:21.946Z,53.10
2018-12-15T11:33:56.671Z,53.15
2018-12-15T11:36:30.681Z,52.26
2018-12-15T11:39:06.772Z,52.25
2018-12-15T11:41:40.646Z,52.51
2018-12-15T11:44:14.554Z,52.61
2018-12-15T11:46:48.422Z,52.54
2018-12-15T11:49:22.718Z,51.42
2018-12-15T11:51:56.685Z,50.75
2018-12-15T11:54:30.618Z,51.27
2018-12-15T11:57:04.612Z,51.68
2018-12-15T11:59:38.662Z,51.43
2018-12-15T12:02:12.521Z,51.82
2018-12-15T12:04:46.630Z,50.22
2018-12-15T12:07:20.435Z,51.23
2018-12-15T12:09:54.445Z,51.51
2018-12-15T12:12:28.237Z,51.51
2018-12-15T12:15:02.259Z,52.08
2018-12-15T12:17:36.031Z,51.91
2018-12-15T12:20:10.176Z,52.33
2018-12-15T12:22:44.288Z,52.47
2018-12-15T12:25:18.195Z,52.21
2018-12-15T12:27:52.102Z,52.86
2018-12-15T12:30:26.935Z,51.86
2018-12-15T12:33:00.837Z,49.53
2018-12-15T12:35:34.951Z,51.56
2018-12-15T12:38:09.163Z,51.60
2018-12-15T12:40:43.073Z,50.53
2018-12-15T12:43:17.084Z,50.64
2018-12-15T12:45:51.095Z,50.75
2018-12-15T12:48:24.840Z,51.37
2018-12-15T12:50:58.802Z,51.20
2018-12-15T12:53:32.612Z,50.74
2018-12-15T12:56:06.618Z,51.35
2018-12-15T12:58:40.421Z,51.06
2018-12-15T13:01:14.431Z,51.88
2018-12-15T13:03:48.440Z,51.75
2018-12-15T13:06:22.616Z,51.64
2018-12-15T13:08:56.772Z,50.77
2018-12-15T13:11:30.783Z,51.00
2018-12-15T13:14:04.636Z,49.94
2018-12-15T13:16:38.779Z,49.78
2018-12-15T13:19:12.809Z,52.12
2018-12-15T13:21:46.915Z,52.99
2018-12-15T13:24:20.941Z,57.13
2018-12-15T13:26:59.210Z,58.78
2018-12-15T13:29:31.198Z,60.20
2018-12-15T13:32:06.129Z,62.13
2018-12-15T13:34:39.938Z,63.93
2018-12-15T13:37:13.944Z,63.10
2018-12-15T13:39:47.748Z,62.25
2018-12-15T13:42:21.656Z,63.36
2018-12-15T13:44:55.619Z,65.85
2018-12-15T13:47:29.678Z,66.06
2018-12-15T13:50:10.138Z,65.69
2018-12-15T13:52:41.498Z,66.65
2018-12-15T13:55:15.493Z,65.36
2018-12-15T13:57:49.399Z,64.08
2018-12-15T14:00:23.203Z,64.34
2018-12-15T14:02:57.114Z,64.58
2018-12-15T14:05:31.223Z,64.42
2018-12-15T14:08:05.074Z,62.82
2018-12-15T14:10:39.140Z,62.74
2018-12-15T14:13:12.880Z,63.21
2018-12-15T14:15:47.350Z,63.57
2018-12-15T14:18:21.319Z,64.32
2018-12-15T14:20:55.284Z,63.19
2018-12-15T14:23:29.289Z,64.67
2018-12-15T14:26:04.836Z,65.26
2018-12-15T14:28:38.640Z,67.66
2018-12-15T14:31:13.366Z,66.37
2018-12-15T14:33:47.543Z,64.46
2018-12-15T14:36:21.898Z,63.69
2018-12-15T14:38:55.705Z,63.82
2018-12-15T14:41:29.609Z,63.33
2018-12-15T14:44:03.337Z,63.92
2018-12-15T14:46:37.323Z,65.66
2018-12-15T14:49:11.127Z,66.82
2018-12-15T14:51:45.092Z,66.71
2018-12-15T14:54:19.248Z,65.16
2018-12-15T14:56:53.257Z,64.61
2018-12-15T14:59:27.166Z,63.94
2018-12-15T15:02:01.688Z,63.11
2018-12-15T15:04:35.593Z,64.57
2018-12-15T15:07:09.499Z,64.11
2018-12-15T15:09:43.410Z,62.31
2018-12-15T15:12:17.228Z,62.31
2018-12-15T15:14:51.223Z,62.91
2018-12-15T15:17:25.233Z,64.68
2018-12-15T15:19:59.138Z,66.07
2018-12-15T15:22:32.944Z,65.96
2018-12-15T15:25:07.060Z,64.79
2018-12-15T15:27:40.700Z,65.65
2018-12-15T15:30:15.549Z,65.48
2018-12-15T15:32:49.321Z,63.12
2018-12-15T15:35:23.400Z,62.37
2018-12-15T15:37:57.409Z,61.90
2018-12-15T15:40:31.317Z,62.17
2018-12-15T15:43:05.224Z,61.05
2018-12-15T15:45:39.336Z,61.55
2018-12-15T15:48:13.450Z,61.67
2018-12-15T15:50:47.188Z,62.77
2018-12-15T15:53:20.833Z,62.12
2018-12-15T15:55:54.765Z,60.67
2018-12-15T15:58:28.973Z,60.14
2018-12-15T16:01:02.782Z,58.90
2018-12-15T16:03:36.788Z,61.09
2018-12-15T16:06:10.798Z,62.17
2018-12-15T16:08:44.807Z,64.27
2018-12-15T16:11:18.575Z,64.50
2018-12-15T16:13:52.726Z,63.69
2018-12-15T16:16:32.997Z,63.02
2018-12-15T16:19:06.813Z,62.26
2018-12-15T16:21:40.897Z,63.50
2018-12-15T16:24:15.008Z,64.17
2018-12-15T16:26:48.813Z,66.20
2018-12-15T16:29:22.799Z,66.49
2018-12-15T16:31:56.832Z,67.96
2018-12-15T16:34:30.843Z,67.78
2018-12-15T16:37:04.852Z,67.03
2018-12-15T16:39:38.665Z,68.11
2018-12-15T16:42:12.879Z,67.45
2018-12-15T16:44:46.983Z,67.08
2018-12-15T16:47:20.740Z,66.63
2018-12-15T16:49:54.575Z,66.91
2018-12-15T16:52:29.429Z,65.57
2018-12-15T16:55:04.660Z,65.57
2018-12-15T16:57:38.571Z,65.54
2018-12-15T17:00:13.151Z,64.94
2018-12-15T17:02:47.202Z,64.81
2018-12-15T17:05:21.211Z,64.63
2018-12-15T17:07:55.116Z,64.37
2018-12-15T17:10:28.822Z,64.39
2018-12-15T17:13:02.829Z,65.38
2018-12-15T17:15:36.736Z,63.99
2018-12-15T17:18:10.606Z,62.37
2018-12-15T17:20:44.758Z,62.62
2018-12-15T17:23:18.635Z,62.27
2018-12-15T17:25:52.774Z,61.80
2018-12-15T17:28:26.644Z,62.79
2018-12-15T17:31:00.895Z,62.62
2018-12-15T17:33:34.705Z,63.22
2018-12-15T17:36:08.711Z,65.27
2018-12-15T17:38:42.515Z,64.16
2018-12-15T17:41:16.627Z,62.49
2018-12-15T17:43:50.432Z,63.74
2018-12-15T17:46:24.543Z,64.24
2018-12-15T17:48:58.554Z,64.59
2018-12-15T17:51:32.562Z,64.03
2018-12-15T17:54:06.470Z,63.91
2018-12-15T17:56:40.377Z,63.07
2018-12-15T17:59:14.284Z,64.29
2018-12-15T18:01:48.191Z,64.53
2018-12-15T18:04:22.202Z,63.77
2018-12-15T18:06:56.108Z,62.99
2018-12-15T18:09:30.016Z,62.41
2018-12-15T18:12:04.029Z,61.96
2018-12-15T18:14:37.932Z,62.16
2018-12-15T18:17:11.839Z,62.02
2018-12-15T18:19:45.645Z,61.47
2018-12-15T18:22:19.552Z,60.87
2018-12-15T18:24:53.562Z,60.19
2018-12-15T18:27:27.514Z,61.17
2018-12-15T18:30:01.580Z,60.67
2018-12-15T18:32:35.694Z,60.61
2018-12-15T18:35:09.602Z,60.15
2018-12-15T18:37:43.459Z,60.32
2018-12-15T18:40:17.516Z,60.06
2018-12-15T18:42:51.321Z,60.95
2018-12-15T18:45:25.272Z,60.38
2018-12-15T18:47:59.242Z,59.95
2018-12-15T18:50:33.247Z,59.76
2018-12-15T18:53:06.948Z,60.07
2018-12-15T18:55:40.860Z,60.01
2018-12-15T18:58:14.667Z,59.51
2018-12-15T19:00:48.466Z,59.74
2018-12-15T19:03:23.214Z,60.02
2018-12-15T19:05:57.276Z,60.21
2018-12-15T19:08:31.314Z,59.36
2018-12-15T19:11:05.324Z,59.59
2018-12-15T19:13:39.202Z,59.14
2018-12-15T19:16:13.240Z,59.37
2018-12-15T19:18:46.944Z,59.66
2018-12-15T19:21:23.067Z,59.06
2018-12-15T19:23:57.113Z,58.32
2018-12-15T19:26:31.838Z,59.24
2018-12-15T19:29:05.747Z,58.11
2018-12-15T19:31:39.652Z,58.13
2018-12-15T19:34:17.436Z,57.08
2018-12-15T19:36:49.720Z,56.63
2018-12-15T19:39:23.730Z,57.48
2018-12-15T19:41:57.535Z,57.36
2018-12-15T19:44:31.445Z,57.23
2018-12-15T19:47:05.352Z,56.52
2018-12-15T19:49:39.217Z,56.79
2018-12-15T19:52:13.265Z,56.61
2018-12-15T19:54:47.026Z,56.86
2018-12-15T19:57:21.187Z,56.72
2018-12-15T19:59:54.985Z,57.55
2018-12-15T20:02:28.791Z,58.78
2018-12-15T20:05:02.596Z,58.78
2018-12-15T20:07:36.502Z,58.96
2018-12-15T20:10:10.255Z,58.28
2018-12-15T20:12:44.317Z,57.75
2018-12-15T20:15:18.290Z,58.00
2018-12-15T20:17:52.439Z,58.51
2018-12-15T20:20:26.071Z,57.26
2018-12-15T20:22:59.946Z,57.45
2018-12-15T20:25:33.853Z,57.67
2018-12-15T20:28:07.657Z,59.17
2018-12-15T20:30:41.769Z,59.01
2018-12-15T20:33:15.638Z,59.47
2018-12-15T20:35:49.687Z,59.09
2018-12-15T20:38:23.594Z,59.11
2018-12-15T20:40:57.499Z,59.00
2018-12-15T20:43:31.407Z,59.86
2018-12-15T20:46:05.213Z,59.92
2018-12-15T20:48:39.018Z,59.62
2018-12-15T20:51:12.812Z,60.51
2018-12-15T20:53:46.732Z,61.02
2018-12-15T20:56:20.738Z,61.33
2018-12-15T20:58:54.510Z,60.83
2018-12-15T21:01:28.603Z,60.64
2018-12-15T21:04:02.563Z,60.64
2018-12-15T21:06:36.469Z,60.99
2018-12-15T21:09:10.275Z,61.69
2018-12-15T21:11:44.079Z,61.33
2018-12-15T21:14:17.887Z,60.77
2018-12-15T21:16:51.619Z,62.85
2018-12-15T21:19:25.502Z,62.34
2018-12-15T21:21:59.412Z,61.84
2018-12-15T21:24:33.206Z,61.42
2018-12-15T21:27:07.216Z,60.54
2018-12-15T21:29:41.439Z,60.69
2018-12-15T21:32:15.336Z,61.50
2018-12-15T21:34:49.259Z,61.29
2018-12-15T21:37:23.355Z,60.94
2018-12-15T21:39:57.058Z,61.17
2018-12-15T21:42:31.750Z,62.94
2018-12-15T21:45:06.203Z,62.59
2018-12-15T21:47:41.753Z,64.86
2018-12-15T21:50:15.760Z,64.68
2018-12-15T21:52:49.671Z,64.83
2018-12-15T21:55:23.471Z,64.77
2018-12-15T21:57:57.584Z,65.41
2018-12-15T22:00:31.387Z,63.73
2018-12-15T22:03:05.295Z,62.01
2018-12-15T22:05:39.307Z,61.13
2018-12-15T22:08:13.077Z,60.87
2018-12-15T22:10:47.021Z,60.95
2018-12-15T22:13:21.765Z,61.77
2018-12-15T22:15:55.803Z,61.73
2018-12-15T22:18:29.821Z,61.71
2018-12-15T22:21:03.873Z,61.00
2018-12-15T22:23:37.884Z,60.18
2018-12-15T22:26:11.900Z,60.19
2018-12-15T22:28:45.803Z,59.37
2018-12-15T22:31:19.812Z,59.59
2018-12-15T22:33:53.637Z,61.10
2018-12-15T22:36:27.635Z,60.65
2018-12-15T22:39:01.326Z,60.06
2018-12-15T22:41:35.337Z,59.70
2018-12-15T22:44:09.242Z,60.84
2018-12-15T22:46:43.253Z,59.10
2018-12-15T22:49:17.261Z,60.11
2018-12-15T22:51:51.219Z,60.47
2018-12-15T22:54:25.244Z,60.05
2018-12-15T22:57:00.626Z,59.86
2018-12-15T22:59:34.624Z,60.02
2018-12-15T23:02:08.742Z,59.89
2018-12-15T23:04:42.531Z,59.65
2018-12-15T23:07:16.659Z,59.98
2018-12-15T23:09:50.566Z,59.19
2018-12-15T23:12:24.580Z,59.13
2018-12-15T23:14:58.483Z,59.54
2018-12-15T23:17:32.389Z,58.67
2018-12-15T23:20:06.707Z,58.63
2018-12-15T23:22:40.495Z,59.07
2018-12-15T23:25:14.432Z,58.95
2018-12-15T23:27:48.325Z,58.75
2018-12-15T23:30:22.437Z,58.24
2018-12-15T23:32:56.509Z,57.73
2018-12-15T23:35:30.354Z,57.01
2018-12-15T23:38:04.365Z,56.18
2018-12-15T23:40:38.122Z,56.79
2018-12-15T23:43:12.178Z,56.00
2018-12-15T23:45:46.187Z,57.24
2018-12-15T23:48:20.048Z,56.03
2018-12-15T23:50:54.003Z,55.94
2018-12-15T23:53:28.114Z,55.77
2018-12-15T23:56:02.022Z,55.64
2018-12-15T23:58:36.136Z,55.71
